createdAt,value
2023-04-23T00:00:57.912Z,32.9
2023-04-23T00:06:36.775Z,32.9
2023-04-23T00:12:28.405Z,32.9
2023-04-23T00:18:20.590Z,32.9
2023-04-23T00:24:11.265Z,32.9
2023-04-23T00:30:02.246Z,32.8
2023-04-23T00:35:54.008Z,32.8
2023-04-23T00:41:29.772Z,32.8
2023-04-23T00:47:21.657Z,32.8
2023-04-23T00:53:13.546Z,32.7
2023-04-23T00:59:04.536Z,32.8
2023-04-23T01:04:57.062Z,32.7
2023-04-23T01:10:48.334Z,32.7
2023-04-23T01:16:39.722Z,32.6
2023-04-23T01:22:15.407Z,32.6
2023-04-23T01:28:06.787Z,32.6
2023-04-23T01:33:58.661Z,32.6
2023-04-23T01:39:50.163Z,32.6
2023-04-23T01:45:41.714Z,32.5
2023-04-23T01:51:35.995Z,32.5
2023-04-23T01:57:26.426Z,32.5
2023-04-23T02:03:03.166Z,32.4
2023-04-23T02:08:55.752Z,32.4
2023-04-23T02:14:47.268Z,32.4
2023-04-23T02:20:39.728Z,32.4
2023-04-23T02:26:31.652Z,32.4
2023-04-23T02:32:23.113Z,32.4
2023-04-23T02:38:14.993Z,32.3
2023-04-23T02:44:06.020Z,32.3
2023-04-23T02:49:57.800Z,32.3
2023-04-23T02:55:49.293Z,32.3
2023-04-23T03:01:41.254Z,32.3
2023-04-23T03:07:34.201Z,32.3
2023-04-23T03:13:10.291Z,32.3
2023-04-23T03:19:02.267Z,32.2
2023-04-23T03:24:53.218Z,32.2
2023-04-23T03:30:46.380Z,32.2
2023-04-23T03:36:38.529Z,32.2
2023-04-23T03:42:29.648Z,32.1
2023-04-23T03:48:06.056Z,32.1
2023-04-23T03:53:42.454Z,32.1
2023-04-23T03:59:17.963Z,32.1
2023-04-23T04:05:12.162Z,32.1
2023-04-23T04:11:04.519Z,32.1
2023-04-23T04:16:55.790Z,32.1
2023-04-23T04:22:49.199Z,32
2023-04-23T04:28:40.381Z,32
2023-04-23T04:34:31.720Z,32
2023-04-23T04:40:23.611Z,31.9
2023-04-23T04:46:15.124Z,31.9
2023-04-23T04:52:07.140Z,31.9
2023-04-23T04:57:58.213Z,31.9
2023-04-23T05:03:35.191Z,31.9
2023-04-23T05:09:27.305Z,31.9
2023-04-23T05:15:20.835Z,31.9
2023-04-23T05:21:12.453Z,31.9
2023-04-23T05:27:04.316Z,31.8
2023-04-23T05:32:56.219Z,31.8
2023-04-23T05:38:54.046Z,31.8
2023-04-23T05:44:47.011Z,31.8
2023-04-23T05:50:39.676Z,31.8
2023-04-23T05:56:32.814Z,31.8
2023-04-23T06:02:24.800Z,31.8
2023-04-23T06:08:05.240Z,31.7
2023-04-23T06:14:00.301Z,31.7
2023-04-23T06:19:51.959Z,31.7
2023-04-23T06:25:43.254Z,41.4
2023-04-23T06:31:35.138Z,39.4
2023-04-23T06:37:37.501Z,37.6
2023-04-23T06:43:29.307Z,36.4
2023-04-23T06:49:21.323Z,41
2023-04-23T06:55:13.278Z,44.3
2023-04-23T07:01:06.287Z,45.5
2023-04-23T07:06:59.320Z,46.2
2023-04-23T07:12:50.249Z,46.9
2023-04-23T07:18:42.291Z,47.4
2023-04-23T07:24:33.530Z,48
2023-04-23T07:30:24.187Z,48.6
2023-04-23T07:36:16.725Z,49.3
2023-04-23T07:42:10.415Z,49.9
2023-04-23T07:48:02.233Z,50.5
2023-04-23T07:53:39.240Z,51.2
2023-04-23T07:59:32.872Z,51.8
2023-04-23T08:05:27.900Z,52.5
2023-04-23T08:11:19.633Z,53.2
2023-04-23T08:17:12.022Z,53.9
2023-04-23T08:23:18.251Z,54.6
2023-04-23T08:28:54.243Z,55.1
2023-04-23T08:35:02.786Z,55.6
2023-04-23T08:40:50.506Z,56.4
2023-04-23T08:46:27.897Z,57.1
2023-04-23T08:52:03.308Z,57.5
2023-04-23T08:57:39.795Z,58.2
2023-04-23T09:03:32.211Z,58.8
2023-04-23T09:09:10.018Z,59.4
2023-04-23T09:15:03.487Z,60
2023-04-23T09:20:54.386Z,59.8
2023-04-23T09:26:30.642Z,59.6
2023-04-23T09:32:06.832Z,60.6
2023-04-23T09:37:59.018Z,61.1
2023-04-23T09:43:35.486Z,61.5
2023-04-23T09:49:12.200Z,61.8
2023-04-23T09:55:04.456Z,61.6
2023-04-23T10:01:19.660Z,61.1
2023-04-23T10:08:11.467Z,61.1
2023-04-23T10:14:50.580Z,61.1
2023-04-23T10:20:47.523Z,61.1
2023-04-23T10:27:05.154Z,61
2023-04-23T10:33:22.713Z,60.9
2023-04-23T10:39:51.081Z,61
2023-04-23T10:45:53.021Z,61.1
2023-04-23T10:52:30.421Z,60.9
2023-04-23T10:58:06.006Z,61
2023-04-23T11:04:00.970Z,60.9
2023-04-23T11:10:01.080Z,60.9
2023-04-23T11:15:54.831Z,60.8
2023-04-23T11:21:33.329Z,60.6
2023-04-23T11:27:24.381Z,60.6
2023-04-23T11:33:25.985Z,60.4
2023-04-23T11:39:17.858Z,60.3
2023-04-23T11:44:54.063Z,60.3
2023-04-23T11:50:01.090Z,60.2
2023-04-23T11:55:52.836Z,60.1
2023-04-23T12:01:45.749Z,60
2023-04-23T12:07:48.793Z,59.9
2023-04-23T12:13:39.222Z,59.8
2023-04-23T12:19:17.576Z,59.8
2023-04-23T12:25:09.247Z,59.6
2023-04-23T12:31:01.616Z,58.8
2023-04-23T12:36:53.662Z,57.9
2023-04-23T12:42:44.755Z,56.1
2023-04-23T12:48:36.972Z,53.3
2023-04-23T12:54:28.560Z,51.2
2023-04-23T13:00:20.392Z,49.9
2023-04-23T13:06:15.171Z,49
2023-04-23T13:11:51.415Z,48.3
2023-04-23T13:17:43.538Z,47.7
2023-04-23T13:23:38.109Z,47.1
2023-04-23T13:29:29.770Z,46.6
2023-04-23T13:34:50.588Z,46.2
2023-04-23T13:40:43.792Z,45.8
2023-04-23T13:46:48.571Z,45.4
2023-04-23T13:52:56.589Z,45.1
2023-04-23T13:58:33.316Z,44.8
2023-04-23T14:04:38.872Z,44.4
2023-04-23T14:10:16.234Z,44.1
2023-04-23T14:15:52.229Z,43.8
2023-04-23T14:21:32.714Z,43.6
2023-04-23T14:27:38.725Z,43.3
2023-04-23T14:33:30.791Z,42.5
2023-04-23T14:39:37.408Z,42.1
2023-04-23T14:45:40.597Z,41.7
2023-04-23T14:51:17.186Z,40.6
2023-04-23T14:57:08.626Z,40.1
2023-04-23T15:03:03.023Z,39.8
2023-04-23T15:08:55.465Z,39.5
2023-04-23T15:14:47.118Z,39.3
2023-04-23T15:20:50.473Z,39.1
2023-04-23T15:26:42.379Z,39
2023-04-23T15:32:19.176Z,38.9
2023-04-23T15:38:12.164Z,38.8
2023-04-23T15:44:03.320Z,38.6
2023-04-23T15:49:55.293Z,38.5
2023-04-23T15:55:47.339Z,38.4
2023-04-23T16:01:42.105Z,38.3
2023-04-23T16:07:51.326Z,38.1
2023-04-23T16:13:43.629Z,37.9
2023-04-23T16:19:36.578Z,37.8
2023-04-23T16:25:28.469Z,37.6
2023-04-23T16:31:40.479Z,37.5
2023-04-23T16:37:32.557Z,37.1
2023-04-23T16:43:24.033Z,36.4
2023-04-23T16:49:17.385Z,36.1
2023-04-23T16:55:10.375Z,35.9
2023-04-23T17:01:03.577Z,35.8
2023-04-23T17:06:58.435Z,35.7
2023-04-23T17:12:52.003Z,35.4
2023-04-23T17:18:29.451Z,35.3
2023-04-23T17:24:06.536Z,35.2
2023-04-23T17:29:59.382Z,35.1
2023-04-23T17:36:00.073Z,35.1
2023-04-23T17:41:53.032Z,35
2023-04-23T17:47:46.486Z,34.9
2023-04-23T17:53:42.338Z,34.9
2023-04-23T17:59:25.123Z,34.4
2023-04-23T18:05:23.262Z,33.3
2023-04-23T18:11:02.072Z,32.5
2023-04-23T18:16:40.309Z,32
2023-04-23T18:22:20.278Z,31.8
2023-04-23T18:27:42.838Z,31.6
2023-04-23T18:33:33.467Z,31.6
2023-04-23T18:39:12.276Z,31.4
2023-04-23T18:45:43.597Z,28.3
2023-04-23T18:51:22.247Z,24.8
2023-04-23T18:57:03.521Z,23.2
2023-04-23T19:03:19.892Z,22.3
2023-04-23T19:09:17.551Z,21.6
2023-04-23T19:14:39.945Z,21.3
2023-04-23T19:20:33.598Z,20.9
2023-04-23T19:26:11.695Z,20.8
2023-04-23T19:32:05.333Z,20.6
2023-04-23T19:37:43.186Z,20.4
2023-04-23T19:43:21.220Z,20.3
2023-04-23T19:48:59.533Z,20.1
2023-04-23T19:54:39.355Z,20
2023-04-23T20:00:32.648Z,19.9
2023-04-23T20:06:11.646Z,19.9
2023-04-23T20:11:48.686Z,19.8
2023-04-23T20:17:28.758Z,19.8
2023-04-23T20:22:51.858Z,19.8
2023-04-23T20:28:29.150Z,19.7
2023-04-23T20:34:06.259Z,19.6
2023-04-23T20:39:43.234Z,19.6
2023-04-23T20:45:34.785Z,19.6
2023-04-23T20:51:11.015Z,19.6
2023-04-23T20:56:46.951Z,19.6
2023-04-23T21:02:39.104Z,19.5
2023-04-23T21:08:32.365Z,19.5
2023-04-23T21:14:23.918Z,19.5
2023-04-23T21:20:16.349Z,19.5
2023-04-23T21:26:07.171Z,19.5
2023-04-23T21:32:01.315Z,19.5
2023-04-23T21:37:37.513Z,19.4
2023-04-23T21:43:28.970Z,19.4
2023-04-23T21:49:21.310Z,19.4
2023-04-23T21:55:13.123Z,19.4
2023-04-23T22:01:21.397Z,19.4
2023-04-23T22:07:33.243Z,19.4
2023-04-23T22:13:39.180Z,19.4
2023-04-23T22:19:43.743Z,19.4
2023-04-23T22:25:34.650Z,19.4
2023-04-23T22:31:10.104Z,19.4
2023-04-23T22:37:02.375Z,19.4
2023-04-23T22:42:55.558Z,19.4
2023-04-23T22:48:31.683Z,19.4
2023-04-23T22:54:09.403Z,19.4
2023-04-23T22:59:29.943Z,19.4
2023-04-23T23:05:06.972Z,19.4
2023-04-23T23:10:27.273Z,19.4
2023-04-23T23:16:18.714Z,19.4
2023-04-23T23:21:54.915Z,19.4
2023-04-23T23:27:45.833Z,19.3
2023-04-23T23:33:37.466Z,19.4
2023-04-23T23:39:28.803Z,19.4
2023-04-23T23:45:22.747Z,19.4
2023-04-23T23:50:59.672Z,19.3
2023-04-23T23:56:35.656Z,19.4
